sensor_id;sensor_type;location;lat;lon;timestamp;temperature;humidity
7572;DHT22;3827;49.928;8.548;2023-08-21T00:01:39;22.40;99.90
7572;DHT22;3827;49.928;8.548;2023-08-21T00:04:06;22.40;99.90
7572;DHT22;3827;49.928;8.548;2023-08-21T00:06:33;22.40;99.90
7572;DHT22;3827;49.928;8.548;2023-08-21T00:09:00;22.50;99.90
7572;DHT22;3827;49.928;8.548;2023-08-21T00:11:27;22.40;99.90
7572;DHT22;3827;49.928;8.548;2023-08-21T00:13:54;22.50;99.90
7572;DHT22;3827;49.928;8.548;2023-08-21T00:16:22;22.40;99.90
7572;DHT22;3827;49.928;8.548;2023-08-21T00:18:49;22.40;99.90
7572;DHT22;3827;49.928;8.548;2023-08-21T00:21:15;22.40;99.90
7572;DHT22;3827;49.928;8.548;2023-08-21T00:23:42;22.40;99.90
7572;DHT22;3827;49.928;8.548;2023-08-21T00:26:09;22.30;99.90
7572;DHT22;3827;49.928;8.548;2023-08-21T00:28:36;22.30;99.90
7572;DHT22;3827;49.928;8.548;2023-08-21T00:31:03;22.20;99.90
7572;DHT22;3827;49.928;8.548;2023-08-21T00:33:32;22.20;99.90
7572;DHT22;3827;49.928;8.548;2023-08-21T00:35:58;22.10;99.90
7572;DHT22;3827;49.928;8.548;2023-08-21T00:38:25;22.10;99.90
7572;DHT22;3827;49.928;8.548;2023-08-21T00:40:52;22.10;99.90
7572;DHT22;3827;49.928;8.548;2023-08-21T00:43:20;22.00;99.90
7572;DHT22;3827;49.928;8.548;2023-08-21T00:45:48;22.00;99.90
7572;DHT22;3827;49.928;8.548;2023-08-21T00:48:16;22.00;99.90
7572;DHT22;3827;49.928;8.548;2023-08-21T00:50:45;22.00;99.90
7572;DHT22;3827;49.928;8.548;2023-08-21T00:53:12;22.00;99.90
7572;DHT22;3827;49.928;8.548;2023-08-21T00:55:39;21.90;99.90
7572;DHT22;3827;49.928;8.548;2023-08-21T00:58:08;21.90;99.90
7572;DHT22;3827;49.928;8.548;2023-08-21T01:00:36;21.90;99.90
7572;DHT22;3827;49.928;8.548;2023-08-21T01:03:02;21.80;99.90
7572;DHT22;3827;49.928;8.548;2023-08-21T01:05:29;21.80;99.90
7572;DHT22;3827;49.928;8.548;2023-08-21T01:08:01;21.80;99.90
7572;DHT22;3827;49.928;8.548;2023-08-21T01:10:43;21.70;99.90
7572;DHT22;3827;49.928;8.548;2023-08-21T01:13:20;21.70;99.90
7572;DHT22;3827;49.928;8.548;2023-08-21T01:15:50;21.60;99.90
7572;DHT22;3827;49.928;8.548;2023-08-21T01:18:18;21.60;99.90
7572;DHT22;3827;49.928;8.548;2023-08-21T01:20:47;21.50;99.90
7572;DHT22;3827;49.928;8.548;2023-08-21T01:23:28;21.40;99.90
7572;DHT22;3827;49.928;8.548;2023-08-21T01:25:55;21.40;99.90
7572;DHT22;3827;49.928;8.548;2023-08-21T01:28:22;21.30;99.90
7572;DHT22;3827;49.928;8.548;2023-08-21T01:30:50;21.30;99.90
7572;DHT22;3827;49.928;8.548;2023-08-21T01:33:18;21.20;99.90
7572;DHT22;3827;49.928;8.548;2023-08-21T01:35:46;21.10;99.90
7572;DHT22;3827;49.928;8.548;2023-08-21T01:38:13;21.70;99.90
7572;DHT22;3827;49.928;8.548;2023-08-21T01:40:41;21.10;99.90
7572;DHT22;3827;49.928;8.548;2023-08-21T01:43:08;21.10;99.90
7572;DHT22;3827;49.928;8.548;2023-08-21T01:45:35;21.00;99.90
7572;DHT22;3827;49.928;8.548;2023-08-21T01:48:02;21.00;99.90
7572;DHT22;3827;49.928;8.548;2023-08-21T01:50:29;20.90;99.90
7572;DHT22;3827;49.928;8.548;2023-08-21T01:52:55;20.90;99.90
7572;DHT22;3827;49.928;8.548;2023-08-21T01:55:22;20.80;99.90
7572;DHT22;3827;49.928;8.548;2023-08-21T01:57:50;20.80;99.90
7572;DHT22;3827;49.928;8.548;2023-08-21T02:00:17;20.70;99.90
7572;DHT22;3827;49.928;8.548;2023-08-21T02:02:44;20.60;99.90
7572;DHT22;3827;49.928;8.548;2023-08-21T02:05:10;20.60;99.90
7572;DHT22;3827;49.928;8.548;2023-08-21T02:07:37;20.60;99.90
7572;DHT22;3827;49.928;8.548;2023-08-21T02:10:05;20.60;99.90
7572;DHT22;3827;49.928;8.548;2023-08-21T02:12:32;20.60;99.90
7572;DHT22;3827;49.928;8.548;2023-08-21T02:15:00;20.60;99.90
7572;DHT22;3827;49.928;8.548;2023-08-21T02:17:26;20.90;99.90
7572;DHT22;3827;49.928;8.548;2023-08-21T02:19:53;20.50;99.90
7572;DHT22;3827;49.928;8.548;2023-08-21T02:22:20;20.50;99.90
7572;DHT22;3827;49.928;8.548;2023-08-21T02:24:47;20.40;99.90
7572;DHT22;3827;49.928;8.548;2023-08-21T02:27:13;20.40;99.90
7572;DHT22;3827;49.928;8.548;2023-08-21T02:29:40;20.40;99.90
7572;DHT22;3827;49.928;8.548;2023-08-21T02:32:08;20.40;99.90
7572;DHT22;3827;49.928;8.548;2023-08-21T02:34:35;20.40;99.90
7572;DHT22;3827;49.928;8.548;2023-08-21T02:37:02;20.30;99.90
7572;DHT22;3827;49.928;8.548;2023-08-21T02:39:30;20.30;99.90
7572;DHT22;3827;49.928;8.548;2023-08-21T02:41:57;20.30;99.90
7572;DHT22;3827;49.928;8.548;2023-08-21T02:44:23;20.30;99.90
7572;DHT22;3827;49.928;8.548;2023-08-21T02:46:50;20.20;99.90
7572;DHT22;3827;49.928;8.548;2023-08-21T02:49:18;20.20;99.90
7572;DHT22;3827;49.928;8.548;2023-08-21T02:51:45;20.20;99.90
7572;DHT22;3827;49.928;8.548;2023-08-21T02:54:12;20.20;99.90
7572;DHT22;3827;49.928;8.548;2023-08-21T02:56:38;20.20;99.90
7572;DHT22;3827;49.928;8.548;2023-08-21T02:59:05;20.20;99.90
7572;DHT22;3827;49.928;8.548;2023-08-21T03:01:32;20.20;99.90
7572;DHT22;3827;49.928;8.548;2023-08-21T03:04:00;20.20;99.90
7572;DHT22;3827;49.928;8.548;2023-08-21T03:06:28;20.10;99.90
7572;DHT22;3827;49.928;8.548;2023-08-21T03:08:55;20.10;99.90
7572;DHT22;3827;49.928;8.548;2023-08-21T03:11:22;20.00;99.90
7572;DHT22;3827;49.928;8.548;2023-08-21T03:13:49;20.00;99.90
7572;DHT22;3827;49.928;8.548;2023-08-21T03:16:15;20.00;99.90
7572;DHT22;3827;49.928;8.548;2023-08-21T03:18:55;20.00;99.90
7572;DHT22;3827;49.928;8.548;2023-08-21T03:21:22;20.00;99.90
7572;DHT22;3827;49.928;8.548;2023-08-21T03:23:53;20.00;99.90
7572;DHT22;3827;49.928;8.548;2023-08-21T03:26:21;20.00;99.90
7572;DHT22;3827;49.928;8.548;2023-08-21T03:28:47;17.70;99.90
7572;DHT22;3827;49.928;8.548;2023-08-21T03:31:14;20.00;99.90
7572;DHT22;3827;49.928;8.548;2023-08-21T03:33:41;20.00;99.90
7572;DHT22;3827;49.928;8.548;2023-08-21T03:36:07;20.00;99.90
7572;DHT22;3827;49.928;8.548;2023-08-21T03:38:34;20.00;99.90
7572;DHT22;3827;49.928;8.548;2023-08-21T03:41:02;19.90;99.90
7572;DHT22;3827;49.928;8.548;2023-08-21T03:43:30;19.80;99.90
7572;DHT22;3827;49.928;8.548;2023-08-21T03:45:57;19.80;99.90
7572;DHT22;3827;49.928;8.548;2023-08-21T03:48:24;19.80;99.90
7572;DHT22;3827;49.928;8.548;2023-08-21T03:50:51;19.80;99.90
7572;DHT22;3827;49.928;8.548;2023-08-21T03:53:18;19.80;99.90
7572;DHT22;3827;49.928;8.548;2023-08-21T03:55:44;19.80;99.90
7572;DHT22;3827;49.928;8.548;2023-08-21T03:58:14;19.80;99.90
7572;DHT22;3827;49.928;8.548;2023-08-21T04:00:41;19.80;99.90
7572;DHT22;3827;49.928;8.548;2023-08-21T04:03:08;19.80;99.90
7572;DHT22;3827;49.928;8.548;2023-08-21T04:05:34;19.70;99.90
7572;DHT22;3827;49.928;8.548;2023-08-21T04:08:01;19.70;99.90
7572;DHT22;3827;49.928;8.548;2023-08-21T04:10:28;19.70;99.90
7572;DHT22;3827;49.928;8.548;2023-08-21T04:12:55;19.60;99.90
7572;DHT22;3827;49.928;8.548;2023-08-21T04:15:23;19.60;99.90
7572;DHT22;3827;49.928;8.548;2023-08-21T04:17:50;19.50;99.90
7572;DHT22;3827;49.928;8.548;2023-08-21T04:20:19;19.60;99.90
7572;DHT22;3827;49.928;8.548;2023-08-21T04:22:45;19.60;99.90
7572;DHT22;3827;49.928;8.548;2023-08-21T04:25:12;19.60;99.90
7572;DHT22;3827;49.928;8.548;2023-08-21T04:27:39;19.60;99.90
7572;DHT22;3827;49.928;8.548;2023-08-21T04:30:07;19.60;99.90
7572;DHT22;3827;49.928;8.548;2023-08-21T04:32:35;19.60;99.90
7572;DHT22;3827;49.928;8.548;2023-08-21T04:35:02;19.60;99.90
7572;DHT22;3827;49.928;8.548;2023-08-21T04:37:29;19.60;99.90
7572;DHT22;3827;49.928;8.548;2023-08-21T04:39:55;19.60;99.90
7572;DHT22;3827;49.928;8.548;2023-08-21T04:42:22;19.60;99.90
7572;DHT22;3827;49.928;8.548;2023-08-21T04:44:49;19.60;99.90
7572;DHT22;3827;49.928;8.548;2023-08-21T04:47:20;20.00;99.90
7572;DHT22;3827;49.928;8.548;2023-08-21T04:49:48;19.60;99.90
7572;DHT22;3827;49.928;8.548;2023-08-21T04:52:15;19.60;99.90
7572;DHT22;3827;49.928;8.548;2023-08-21T04:54:42;19.60;99.90
7572;DHT22;3827;49.928;8.548;2023-08-21T04:57:09;19.60;99.90
7572;DHT22;3827;49.928;8.548;2023-08-21T04:59:36;19.60;99.90
7572;DHT22;3827;49.928;8.548;2023-08-21T05:02:03;19.60;99.90
7572;DHT22;3827;49.928;8.548;2023-08-21T05:04:30;19.60;99.90
7572;DHT22;3827;49.928;8.548;2023-08-21T05:06:58;19.60;99.90
7572;DHT22;3827;49.928;8.548;2023-08-21T05:09:24;19.60;99.90
7572;DHT22;3827;49.928;8.548;2023-08-21T05:11:51;19.60;99.90
7572;DHT22;3827;49.928;8.548;2023-08-21T05:14:18;19.60;99.90
7572;DHT22;3827;49.928;8.548;2023-08-21T05:16:45;20.30;99.90
7572;DHT22;3827;49.928;8.548;2023-08-21T05:19:12;19.60;99.90
7572;DHT22;3827;49.928;8.548;2023-08-21T05:21:38;19.60;99.90
7572;DHT22;3827;49.928;8.548;2023-08-21T05:24:06;19.70;99.90
7572;DHT22;3827;49.928;8.548;2023-08-21T05:26:35;19.70;99.90
7572;DHT22;3827;49.928;8.548;2023-08-21T05:29:02;19.70;99.90
7572;DHT22;3827;49.928;8.548;2023-08-21T05:31:29;19.80;99.90
7572;DHT22;3827;49.928;8.548;2023-08-21T05:33:56;19.90;99.90
7572;DHT22;3827;49.928;8.548;2023-08-21T05:36:22;20.00;99.90
7572;DHT22;3827;49.928;8.548;2023-08-21T05:38:49;20.00;99.90
7572;DHT22;3827;49.928;8.548;2023-08-21T05:41:18;20.00;99.90
7572;DHT22;3827;49.928;8.548;2023-08-21T05:43:45;20.00;99.90
7572;DHT22;3827;49.928;8.548;2023-08-21T05:46:13;20.10;99.90
7572;DHT22;3827;49.928;8.548;2023-08-21T05:48:39;20.20;99.90
7572;DHT22;3827;49.928;8.548;2023-08-21T05:51:06;20.30;99.90
7572;DHT22;3827;49.928;8.548;2023-08-21T05:53:33;20.40;99.90
7572;DHT22;3827;49.928;8.548;2023-08-21T05:56:00;20.50;99.90
7572;DHT22;3827;49.928;8.548;2023-08-21T05:58:28;20.50;99.90
7572;DHT22;3827;49.928;8.548;2023-08-21T06:00:57;20.60;99.90
7572;DHT22;3827;49.928;8.548;2023-08-21T06:03:24;20.70;99.90
7572;DHT22;3827;49.928;8.548;2023-08-21T06:05:50;20.80;99.90
7572;DHT22;3827;49.928;8.548;2023-08-21T06:08:17;20.90;99.90
7572;DHT22;3827;49.928;8.548;2023-08-21T06:10:44;21.00;99.90
7572;DHT22;3827;49.928;8.548;2023-08-21T06:13:11;21.10;99.90
7572;DHT22;3827;49.928;8.548;2023-08-21T06:15:39;21.20;99.90
7572;DHT22;3827;49.928;8.548;2023-08-21T06:18:06;21.30;99.90
7572;DHT22;3827;49.928;8.548;2023-08-21T06:20:32;21.40;99.90
7572;DHT22;3827;49.928;8.548;2023-08-21T06:22:59;21.60;99.90
7572;DHT22;3827;49.928;8.548;2023-08-21T06:25:26;21.60;99.90
7572;DHT22;3827;49.928;8.548;2023-08-21T06:27:53;21.70;99.90
7572;DHT22;3827;49.928;8.548;2023-08-21T06:30:19;21.80;99.90
7572;DHT22;3827;49.928;8.548;2023-08-21T06:32:47;21.90;99.90
7572;DHT22;3827;49.928;8.548;2023-08-21T06:35:15;22.00;99.90
7572;DHT22;3827;49.928;8.548;2023-08-21T06:37:42;22.10;99.90
7572;DHT22;3827;49.928;8.548;2023-08-21T06:40:09;22.20;99.90
7572;DHT22;3827;49.928;8.548;2023-08-21T06:42:36;22.30;99.90
7572;DHT22;3827;49.928;8.548;2023-08-21T06:45:04;22.40;99.90
7572;DHT22;3827;49.928;8.548;2023-08-21T06:47:32;22.60;99.90
7572;DHT22;3827;49.928;8.548;2023-08-21T06:50:00;22.70;99.90
7572;DHT22;3827;49.928;8.548;2023-08-21T06:52:26;22.70;99.90
7572;DHT22;3827;49.928;8.548;2023-08-21T06:54:53;22.80;99.90
7572;DHT22;3827;49.928;8.548;2023-08-21T06:57:20;23.20;99.90
7572;DHT22;3827;49.928;8.548;2023-08-21T06:59:47;23.10;99.90
7572;DHT22;3827;49.928;8.548;2023-08-21T07:02:14;23.10;99.90
7572;DHT22;3827;49.928;8.548;2023-08-21T07:04:41;23.20;99.90
7572;DHT22;3827;49.928;8.548;2023-08-21T07:07:09;23.30;99.90
7572;DHT22;3827;49.928;8.548;2023-08-21T07:09:35;23.40;99.90
7572;DHT22;3827;49.928;8.548;2023-08-21T07:12:03;23.50;99.90
7572;DHT22;3827;49.928;8.548;2023-08-21T07:14:30;23.60;99.90
7572;DHT22;3827;49.928;8.548;2023-08-21T07:16:56;23.70;99.90
7572;DHT22;3827;49.928;8.548;2023-08-21T07:19:23;23.90;99.90
7572;DHT22;3827;49.928;8.548;2023-08-21T07:21:50;23.90;99.90
7572;DHT22;3827;49.928;8.548;2023-08-21T07:24:18;24.10;99.90
7572;DHT22;3827;49.928;8.548;2023-08-21T07:26:45;24.30;99.90
7572;DHT22;3827;49.928;8.548;2023-08-21T07:29:11;24.30;99.90
7572;DHT22;3827;49.928;8.548;2023-08-21T07:31:38;24.30;99.90
7572;DHT22;3827;49.928;8.548;2023-08-21T07:34:05;24.50;99.90
7572;DHT22;3827;49.928;8.548;2023-08-21T07:36:32;24.50;99.90
7572;DHT22;3827;49.928;8.548;2023-08-21T07:38:59;24.60;99.90
7572;DHT22;3827;49.928;8.548;2023-08-21T07:41:27;25.00;99.90
7572;DHT22;3827;49.928;8.548;2023-08-21T07:43:54;24.80;99.90
7572;DHT22;3827;49.928;8.548;2023-08-21T07:46:21;24.90;99.90
7572;DHT22;3827;49.928;8.548;2023-08-21T07:48:50;25.00;99.90
7572;DHT22;3827;49.928;8.548;2023-08-21T07:51:16;25.20;99.90
7572;DHT22;3827;49.928;8.548;2023-08-21T07:53:43;25.20;99.90
7572;DHT22;3827;49.928;8.548;2023-08-21T07:56:10;25.20;99.90
7572;DHT22;3827;49.928;8.548;2023-08-21T07:58:38;25.20;99.90
7572;DHT22;3827;49.928;8.548;2023-08-21T08:01:05;25.20;99.90
7572;DHT22;3827;49.928;8.548;2023-08-21T08:03:32;25.20;99.90
7572;DHT22;3827;49.928;8.548;2023-08-21T08:05:59;25.50;99.90
7572;DHT22;3827;49.928;8.548;2023-08-21T08:08:25;25.40;99.90
7572;DHT22;3827;49.928;8.548;2023-08-21T08:10:52;25.70;99.90
7572;DHT22;3827;49.928;8.548;2023-08-21T08:13:19;25.70;99.90
7572;DHT22;3827;49.928;8.548;2023-08-21T08:15:47;26.00;99.90
7572;DHT22;3827;49.928;8.548;2023-08-21T08:18:14;26.00;99.90
7572;DHT22;3827;49.928;8.548;2023-08-21T08:20:41;26.20;99.90
7572;DHT22;3827;49.928;8.548;2023-08-21T08:23:08;26.60;99.90
7572;DHT22;3827;49.928;8.548;2023-08-21T08:25:35;26.10;99.90
7572;DHT22;3827;49.928;8.548;2023-08-21T08:28:02;26.10;99.90
7572;DHT22;3827;49.928;8.548;2023-08-21T08:30:29;26.30;99.90
7572;DHT22;3827;49.928;8.548;2023-08-21T08:32:57;26.50;99.90
7572;DHT22;3827;49.928;8.548;2023-08-21T08:35:24;26.70;99.90
7572;DHT22;3827;49.928;8.548;2023-08-21T08:37:50;26.80;99.90
7572;DHT22;3827;49.928;8.548;2023-08-21T08:40:17;27.00;99.90
7572;DHT22;3827;49.928;8.548;2023-08-21T08:42:44;27.00;99.90
7572;DHT22;3827;49.928;8.548;2023-08-21T08:45:13;27.10;99.90
7572;DHT22;3827;49.928;8.548;2023-08-21T08:47:41;27.30;99.90
7572;DHT22;3827;49.928;8.548;2023-08-21T08:50:09;27.30;99.90
7572;DHT22;3827;49.928;8.548;2023-08-21T08:52:38;27.20;99.90
7572;DHT22;3827;49.928;8.548;2023-08-21T08:55:06;27.30;99.90
7572;DHT22;3827;49.928;8.548;2023-08-21T08:57:33;27.40;99.90
7572;DHT22;3827;49.928;8.548;2023-08-21T09:00:00;27.40;99.90
7572;DHT22;3827;49.928;8.548;2023-08-21T09:02:27;27.50;99.90
7572;DHT22;3827;49.928;8.548;2023-08-21T09:04:54;27.50;99.90
7572;DHT22;3827;49.928;8.548;2023-08-21T09:07:22;27.60;99.90
7572;DHT22;3827;49.928;8.548;2023-08-21T09:09:49;27.80;99.90
7572;DHT22;3827;49.928;8.548;2023-08-21T09:12:18;27.90;99.90
7572;DHT22;3827;49.928;8.548;2023-08-21T09:14:46;28.00;99.90
7572;DHT22;3827;49.928;8.548;2023-08-21T09:17:13;27.80;99.90
7572;DHT22;3827;49.928;8.548;2023-08-21T09:19:41;28.00;99.90
7572;DHT22;3827;49.928;8.548;2023-08-21T09:22:09;28.20;99.90
7572;DHT22;3827;49.928;8.548;2023-08-21T09:24:38;28.20;99.90
7572;DHT22;3827;49.928;8.548;2023-08-21T09:27:13;28.10;99.90
7572;DHT22;3827;49.928;8.548;2023-08-21T09:29:40;28.30;99.90
7572;DHT22;3827;49.928;8.548;2023-08-21T09:32:07;28.50;99.90
7572;DHT22;3827;49.928;8.548;2023-08-21T09:34:35;28.60;99.90
7572;DHT22;3827;49.928;8.548;2023-08-21T09:37:05;28.70;99.90
7572;DHT22;3827;49.928;8.548;2023-08-21T09:39:33;29.00;99.90
7572;DHT22;3827;49.928;8.548;2023-08-21T09:42:04;29.10;99.90
7572;DHT22;3827;49.928;8.548;2023-08-21T09:44:35;29.10;99.90
7572;DHT22;3827;49.928;8.548;2023-08-21T09:47:02;29.40;99.90
7572;DHT22;3827;49.928;8.548;2023-08-21T09:49:29;29.20;99.90
7572;DHT22;3827;49.928;8.548;2023-08-21T09:51:58;29.30;99.90
7572;DHT22;3827;49.928;8.548;2023-08-21T09:54:25;29.50;99.90
7572;DHT22;3827;49.928;8.548;2023-08-21T09:56:53;29.50;99.90
7572;DHT22;3827;49.928;8.548;2023-08-21T09:59:21;29.50;99.90
7572;DHT22;3827;49.928;8.548;2023-08-21T10:01:51;29.80;99.90
7572;DHT22;3827;49.928;8.548;2023-08-21T10:04:18;30.10;99.90
7572;DHT22;3827;49.928;8.548;2023-08-21T10:06:47;30.10;99.90
7572;DHT22;3827;49.928;8.548;2023-08-21T10:09:14;30.50;99.90
7572;DHT22;3827;49.928;8.548;2023-08-21T10:11:43;30.70;99.90
7572;DHT22;3827;49.928;8.548;2023-08-21T10:14:10;31.30;99.90
7572;DHT22;3827;49.928;8.548;2023-08-21T10:16:39;31.50;99.90
7572;DHT22;3827;49.928;8.548;2023-08-21T10:19:06;31.10;99.90
7572;DHT22;3827;49.928;8.548;2023-08-21T10:21:35;31.60;99.90
7572;DHT22;3827;49.928;8.548;2023-08-21T10:24:03;32.00;99.90
7572;DHT22;3827;49.928;8.548;2023-08-21T10:26:30;32.20;99.90
7572;DHT22;3827;49.928;8.548;2023-08-21T10:29:00;32.50;99.90
7572;DHT22;3827;49.928;8.548;2023-08-21T10:31:30;32.90;99.90
7572;DHT22;3827;49.928;8.548;2023-08-21T10:34:00;32.50;99.90
7572;DHT22;3827;49.928;8.548;2023-08-21T10:39:35;33.20;99.90
7572;DHT22;3827;49.928;8.548;2023-08-21T10:42:05;33.60;99.90
7572;DHT22;3827;49.928;8.548;2023-08-21T10:44:52;33.70;99.90
7572;DHT22;3827;49.928;8.548;2023-08-21T10:47:22;33.70;99.90
7572;DHT22;3827;49.928;8.548;2023-08-21T10:49:52;33.90;99.90
7572;DHT22;3827;49.928;8.548;2023-08-21T10:52:24;34.10;99.90
7572;DHT22;3827;49.928;8.548;2023-08-21T10:54:52;34.30;99.90
7572;DHT22;3827;49.928;8.548;2023-08-21T10:57:19;34.00;99.90
7572;DHT22;3827;49.928;8.548;2023-08-21T10:59:57;33.70;99.90
7572;DHT22;3827;49.928;8.548;2023-08-21T11:02:25;33.70;99.90
7572;DHT22;3827;49.928;8.548;2023-08-21T11:04:53;34.10;99.90
7572;DHT22;3827;49.928;8.548;2023-08-21T11:07:20;34.40;99.90
7572;DHT22;3827;49.928;8.548;2023-08-21T11:09:47;34.60;99.90
7572;DHT22;3827;49.928;8.548;2023-08-21T11:12:15;34.90;99.90
7572;DHT22;3827;49.928;8.548;2023-08-21T11:14:43;35.00;99.90
7572;DHT22;3827;49.928;8.548;2023-08-21T11:17:10;34.90;99.90
7572;DHT22;3827;49.928;8.548;2023-08-21T11:19:38;34.30;99.90
7572;DHT22;3827;49.928;8.548;2023-08-21T11:22:06;34.50;99.90
7572;DHT22;3827;49.928;8.548;2023-08-21T11:24:51;34.90;99.90
7572;DHT22;3827;49.928;8.548;2023-08-21T11:27:19;33.70;99.90
7572;DHT22;3827;49.928;8.548;2023-08-21T11:29:49;32.80;99.90
7572;DHT22;3827;49.928;8.548;2023-08-21T11:32:18;33.20;99.90
7572;DHT22;3827;49.928;8.548;2023-08-21T11:34:48;33.60;99.90
7572;DHT22;3827;49.928;8.548;2023-08-21T11:37:18;33.00;99.90
7572;DHT22;3827;49.928;8.548;2023-08-21T11:39:48;33.10;99.90
7572;DHT22;3827;49.928;8.548;2023-08-21T11:42:16;33.70;99.90
7572;DHT22;3827;49.928;8.548;2023-08-21T11:44:45;34.40;99.90
7572;DHT22;3827;49.928;8.548;2023-08-21T11:47:13;34.60;99.90
7572;DHT22;3827;49.928;8.548;2023-08-21T11:49:40;34.80;99.90
7572;DHT22;3827;49.928;8.548;2023-08-21T11:52:08;33.90;99.90
7572;DHT22;3827;49.928;8.548;2023-08-21T11:54:37;34.40;99.90
7572;DHT22;3827;49.928;8.548;2023-08-21T11:57:06;34.20;99.90
7572;DHT22;3827;49.928;8.548;2023-08-21T11:59:34;34.60;99.90
7572;DHT22;3827;49.928;8.548;2023-08-21T12:02:02;35.00;99.90
7572;DHT22;3827;49.928;8.548;2023-08-21T12:04:34;35.50;99.90
7572;DHT22;3827;49.928;8.548;2023-08-21T12:07:03;35.10;99.90
7572;DHT22;3827;49.928;8.548;2023-08-21T12:09:30;34.70;99.90
7572;DHT22;3827;49.928;8.548;2023-08-21T12:11:58;33.40;99.90
7572;DHT22;3827;49.928;8.548;2023-08-21T12:14:25;32.90;99.90
7572;DHT22;3827;49.928;8.548;2023-08-21T12:16:52;33.10;99.90
7572;DHT22;3827;49.928;8.548;2023-08-21T12:19:19;33.00;99.90
7572;DHT22;3827;49.928;8.548;2023-08-21T12:21:47;33.00;99.90
7572;DHT22;3827;49.928;8.548;2023-08-21T12:24:14;33.70;99.90
7572;DHT22;3827;49.928;8.548;2023-08-21T12:26:40;33.90;99.90
7572;DHT22;3827;49.928;8.548;2023-08-21T12:29:08;34.60;99.90
7572;DHT22;3827;49.928;8.548;2023-08-21T12:31:35;35.30;99.90
7572;DHT22;3827;49.928;8.548;2023-08-21T12:34:02;35.40;99.90
7572;DHT22;3827;49.928;8.548;2023-08-21T12:36:30;33.60;99.90
7572;DHT22;3827;49.928;8.548;2023-08-21T12:38:56;33.60;99.90
7572;DHT22;3827;49.928;8.548;2023-08-21T12:41:23;33.70;99.90
7572;DHT22;3827;49.928;8.548;2023-08-21T12:43:50;33.70;99.90
7572;DHT22;3827;49.928;8.548;2023-08-21T12:46:18;34.20;99.90
7572;DHT22;3827;49.928;8.548;2023-08-21T12:48:45;35.30;99.90
7572;DHT22;3827;49.928;8.548;2023-08-21T12:51:11;35.20;99.90
7572;DHT22;3827;49.928;8.548;2023-08-21T12:53:38;36.00;99.90
7572;DHT22;3827;49.928;8.548;2023-08-21T12:56:05;34.90;99.90
7572;DHT22;3827;49.928;8.548;2023-08-21T12:58:31;34.60;99.90
7572;DHT22;3827;49.928;8.548;2023-08-21T13:00:58;34.30;99.90
7572;DHT22;3827;49.928;8.548;2023-08-21T13:03:26;34.80;99.90
7572;DHT22;3827;49.928;8.548;2023-08-21T13:05:53;35.30;99.90
7572;DHT22;3827;49.928;8.548;2023-08-21T13:08:21;36.00;99.90
7572;DHT22;3827;49.928;8.548;2023-08-21T13:10:47;36.60;99.90
7572;DHT22;3827;49.928;8.548;2023-08-21T13:13:14;37.00;99.90
7572;DHT22;3827;49.928;8.548;2023-08-21T13:15:41;37.40;99.90
7572;DHT22;3827;49.928;8.548;2023-08-21T13:18:10;37.70;99.90
7572;DHT22;3827;49.928;8.548;2023-08-21T13:20:38;37.10;99.90
7572;DHT22;3827;49.928;8.548;2023-08-21T13:23:05;37.30;99.90
7572;DHT22;3827;49.928;8.548;2023-08-21T13:25:31;37.60;99.90
7572;DHT22;3827;49.928;8.548;2023-08-21T13:28:00;37.80;99.90
7572;DHT22;3827;49.928;8.548;2023-08-21T13:30:27;37.90;99.90
7572;DHT22;3827;49.928;8.548;2023-08-21T13:32:54;37.60;99.90
7572;DHT22;3827;49.928;8.548;2023-08-21T13:35:21;36.90;99.90
7572;DHT22;3827;49.928;8.548;2023-08-21T13:37:50;37.60;99.90
7572;DHT22;3827;49.928;8.548;2023-08-21T13:40:17;37.70;99.90
7572;DHT22;3827;49.928;8.548;2023-08-21T13:42:46;38.20;99.90
7572;DHT22;3827;49.928;8.548;2023-08-21T13:45:15;38.20;99.90
7572;DHT22;3827;49.928;8.548;2023-08-21T13:47:43;37.40;99.90
7572;DHT22;3827;49.928;8.548;2023-08-21T13:50:10;38.10;99.90
7572;DHT22;3827;49.928;8.548;2023-08-21T13:52:37;36.90;99.90
7572;DHT22;3827;49.928;8.548;2023-08-21T13:55:08;36.00;99.90
7572;DHT22;3827;49.928;8.548;2023-08-21T13:57:35;36.50;99.90
7572;DHT22;3827;49.928;8.548;2023-08-21T14:00:05;35.20;99.90
7572;DHT22;3827;49.928;8.548;2023-08-21T14:02:33;35.60;99.90
7572;DHT22;3827;49.928;8.548;2023-08-21T14:05:00;34.60;99.90
7572;DHT22;3827;49.928;8.548;2023-08-21T14:07:27;34.90;99.90
7572;DHT22;3827;49.928;8.548;2023-08-21T14:09:53;34.40;99.90
7572;DHT22;3827;49.928;8.548;2023-08-21T14:12:22;34.80;99.90
7572;DHT22;3827;49.928;8.548;2023-08-21T14:14:49;35.00;99.90
7572;DHT22;3827;49.928;8.548;2023-08-21T14:17:16;34.40;99.90
7572;DHT22;3827;49.928;8.548;2023-08-21T14:19:42;35.10;99.90
7572;DHT22;3827;49.928;8.548;2023-08-21T14:22:09;34.40;99.90
7572;DHT22;3827;49.928;8.548;2023-08-21T14:24:36;34.40;99.90
7572;DHT22;3827;49.928;8.548;2023-08-21T14:27:03;34.10;99.90
7572;DHT22;3827;49.928;8.548;2023-08-21T14:29:31;34.10;99.90
7572;DHT22;3827;49.928;8.548;2023-08-21T14:31:58;33.90;99.90
7572;DHT22;3827;49.928;8.548;2023-08-21T14:34:25;35.20;99.90
7572;DHT22;3827;49.928;8.548;2023-08-21T14:36:53;35.50;99.90
7572;DHT22;3827;49.928;8.548;2023-08-21T14:39:22;35.60;99.90
7572;DHT22;3827;49.928;8.548;2023-08-21T14:41:53;35.70;99.90
7572;DHT22;3827;49.928;8.548;2023-08-21T14:44:20;35.60;99.90
7572;DHT22;3827;49.928;8.548;2023-08-21T14:46:48;35.50;99.90
7572;DHT22;3827;49.928;8.548;2023-08-21T14:49:15;36.50;99.90
7572;DHT22;3827;49.928;8.548;2023-08-21T14:51:41;36.60;99.90
7572;DHT22;3827;49.928;8.548;2023-08-21T14:54:08;36.30;99.90
7572;DHT22;3827;49.928;8.548;2023-08-21T14:56:35;36.80;99.90
7572;DHT22;3827;49.928;8.548;2023-08-21T14:59:02;36.80;99.90
7572;DHT22;3827;49.928;8.548;2023-08-21T15:01:29;36.70;99.90
7572;DHT22;3827;49.928;8.548;2023-08-21T15:03:57;36.70;99.90
7572;DHT22;3827;49.928;8.548;2023-08-21T15:06:24;36.40;99.90
7572;DHT22;3827;49.928;8.548;2023-08-21T15:08:51;36.30;99.90
7572;DHT22;3827;49.928;8.548;2023-08-21T15:11:18;36.40;99.90
7572;DHT22;3827;49.928;8.548;2023-08-21T15:13:45;36.30;99.90
7572;DHT22;3827;49.928;8.548;2023-08-21T15:16:12;36.30;99.90
7572;DHT22;3827;49.928;8.548;2023-08-21T15:18:39;36.00;99.90
7572;DHT22;3827;49.928;8.548;2023-08-21T15:21:07;36.00;99.90
7572;DHT22;3827;49.928;8.548;2023-08-21T15:23:34;35.20;99.90
7572;DHT22;3827;49.928;8.548;2023-08-21T15:26:01;35.20;99.90
7572;DHT22;3827;49.928;8.548;2023-08-21T15:28:27;34.90;99.90
7572;DHT22;3827;49.928;8.548;2023-08-21T15:30:54;34.80;99.90
7572;DHT22;3827;49.928;8.548;2023-08-21T15:33:21;33.60;99.90
7572;DHT22;3827;49.928;8.548;2023-08-21T15:35:48;33.40;99.90
7572;DHT22;3827;49.928;8.548;2023-08-21T15:38:16;33.80;99.90
7572;DHT22;3827;49.928;8.548;2023-08-21T15:40:43;33.70;99.90
7572;DHT22;3827;49.928;8.548;2023-08-21T15:43:10;33.90;99.90
7572;DHT22;3827;49.928;8.548;2023-08-21T15:45:37;33.90;99.90
7572;DHT22;3827;49.928;8.548;2023-08-21T15:48:04;33.90;99.90
7572;DHT22;3827;49.928;8.548;2023-08-21T15:50:31;34.20;99.90
7572;DHT22;3827;49.928;8.548;2023-08-21T15:52:58;34.20;99.90
7572;DHT22;3827;49.928;8.548;2023-08-21T15:55:26;34.30;99.90
7572;DHT22;3827;49.928;8.548;2023-08-21T15:57:52;33.90;99.90
7572;DHT22;3827;49.928;8.548;2023-08-21T16:00:19;33.60;99.90
7572;DHT22;3827;49.928;8.548;2023-08-21T16:02:47;33.50;99.90
7572;DHT22;3827;49.928;8.548;2023-08-21T16:05:13;33.70;99.90
7572;DHT22;3827;49.928;8.548;2023-08-21T16:07:40;33.60;99.90